sensor_id;sensor_type;location;lat;lon;timestamp;temperature;humidity
648;DHT22;75315;49.006;9.060;2024-01-25T00:02:16;9.50;1.00
648;DHT22;75315;49.006;9.060;2024-01-25T00:04:41;9.50;1.00
648;DHT22;75315;49.006;9.060;2024-01-25T00:07:10;9.60;1.00
648;DHT22;75315;49.006;9.060;2024-01-25T00:09:35;9.40;1.00
648;DHT22;75315;49.006;9.060;2024-01-25T00:12:01;9.40;1.00
648;DHT22;75315;49.006;9.060;2024-01-25T00:14:27;9.50;1.00
648;DHT22;75315;49.006;9.060;2024-01-25T00:16:52;9.50;1.00
648;DHT22;75315;49.006;9.060;2024-01-25T00:19:18;9.50;1.00
648;DHT22;75315;49.006;9.060;2024-01-25T00:21:44;9.50;1.00
648;DHT22;75315;49.006;9.060;2024-01-25T00:24:12;9.40;1.00
648;DHT22;75315;49.006;9.060;2024-01-25T00:26:38;9.40;1.00
648;DHT22;75315;49.006;9.060;2024-01-25T00:29:04;9.50;1.00
648;DHT22;75315;49.006;9.060;2024-01-25T00:31:30;9.50;1.00
648;DHT22;75315;49.006;9.060;2024-01-25T00:33:57;9.50;1.00
648;DHT22;75315;49.006;9.060;2024-01-25T00:36:23;9.50;1.00
648;DHT22;75315;49.006;9.060;2024-01-25T00:38:49;9.50;1.00
648;DHT22;75315;49.006;9.060;2024-01-25T00:41:18;9.40;1.00
648;DHT22;75315;49.006;9.060;2024-01-25T00:43:47;9.50;1.00
648;DHT22;75315;49.006;9.060;2024-01-25T00:46:13;9.50;1.00
648;DHT22;75315;49.006;9.060;2024-01-25T00:48:39;9.50;1.00
648;DHT22;75315;49.006;9.060;2024-01-25T00:51:07;9.50;1.00
648;DHT22;75315;49.006;9.060;2024-01-25T00:53:37;9.50;1.00
648;DHT22;75315;49.006;9.060;2024-01-25T00:56:03;9.50;1.00
648;DHT22;75315;49.006;9.060;2024-01-25T00:58:29;9.50;1.00
648;DHT22;75315;49.006;9.060;2024-01-25T01:00:55;9.50;1.00
648;DHT22;75315;49.006;9.060;2024-01-25T01:03:21;9.50;1.00
648;DHT22;75315;49.006;9.060;2024-01-25T01:05:47;9.50;1.00
648;DHT22;75315;49.006;9.060;2024-01-25T01:08:12;9.50;1.00
648;DHT22;75315;49.006;9.060;2024-01-25T01:10:38;9.50;1.00
648;DHT22;75315;49.006;9.060;2024-01-25T01:13:04;9.60;1.00
648;DHT22;75315;49.006;9.060;2024-01-25T01:15:29;9.40;1.00
648;DHT22;75315;49.006;9.060;2024-01-25T01:17:55;9.50;1.00
648;DHT22;75315;49.006;9.060;2024-01-25T01:20:21;9.50;1.00
648;DHT22;75315;49.006;9.060;2024-01-25T01:22:46;9.50;1.00
648;DHT22;75315;49.006;9.060;2024-01-25T01:25:12;9.40;1.00
648;DHT22;75315;49.006;9.060;2024-01-25T01:27:37;9.40;1.00
648;DHT22;75315;49.006;9.060;2024-01-25T01:30:03;9.50;1.00
648;DHT22;75315;49.006;9.060;2024-01-25T01:32:29;9.50;1.00
648;DHT22;75315;49.006;9.060;2024-01-25T01:34:55;9.50;1.00
648;DHT22;75315;49.006;9.060;2024-01-25T01:37:20;9.40;1.00
648;DHT22;75315;49.006;9.060;2024-01-25T01:39:46;9.40;1.00
648;DHT22;75315;49.006;9.060;2024-01-25T01:42:12;9.40;1.00
648;DHT22;75315;49.006;9.060;2024-01-25T01:44:38;9.40;1.00
648;DHT22;75315;49.006;9.060;2024-01-25T01:47:04;9.50;1.00
648;DHT22;75315;49.006;9.060;2024-01-25T01:49:30;9.40;1.00
648;DHT22;75315;49.006;9.060;2024-01-25T01:51:56;9.40;1.00
648;DHT22;75315;49.006;9.060;2024-01-25T01:54:21;9.40;1.00
648;DHT22;75315;49.006;9.060;2024-01-25T01:56:48;9.40;1.00
648;DHT22;75315;49.006;9.060;2024-01-25T01:59:15;9.30;1.00
648;DHT22;75315;49.006;9.060;2024-01-25T02:01:41;9.30;1.00
648;DHT22;75315;49.006;9.060;2024-01-25T02:04:07;9.30;1.00
648;DHT22;75315;49.006;9.060;2024-01-25T02:06:33;9.30;1.00
648;DHT22;75315;49.006;9.060;2024-01-25T02:08:58;9.30;1.00
648;DHT22;75315;49.006;9.060;2024-01-25T02:11:25;9.30;1.00
648;DHT22;75315;49.006;9.060;2024-01-25T02:13:50;9.40;1.00
648;DHT22;75315;49.006;9.060;2024-01-25T02:16:16;9.40;1.00
648;DHT22;75315;49.006;9.060;2024-01-25T02:18:43;9.30;1.00
648;DHT22;75315;49.006;9.060;2024-01-25T02:21:08;9.20;1.00
648;DHT22;75315;49.006;9.060;2024-01-25T02:23:34;9.20;1.00
648;DHT22;75315;49.006;9.060;2024-01-25T02:26:00;9.40;1.00
648;DHT22;75315;49.006;9.060;2024-01-25T02:28:25;9.30;1.00
648;DHT22;75315;49.006;9.060;2024-01-25T02:30:51;9.20;1.00
648;DHT22;75315;49.006;9.060;2024-01-25T02:33:17;9.30;1.00
648;DHT22;75315;49.006;9.060;2024-01-25T02:35:43;9.40;1.00
648;DHT22;75315;49.006;9.060;2024-01-25T02:38:08;9.20;1.00
648;DHT22;75315;49.006;9.060;2024-01-25T02:40:34;9.30;1.00
648;DHT22;75315;49.006;9.060;2024-01-25T02:42:59;9.20;1.00
648;DHT22;75315;49.006;9.060;2024-01-25T02:45:25;9.20;1.00
648;DHT22;75315;49.006;9.060;2024-01-25T02:47:50;9.30;1.00
648;DHT22;75315;49.006;9.060;2024-01-25T02:50:16;9.20;1.00
648;DHT22;75315;49.006;9.060;2024-01-25T02:52:42;9.20;1.00
648;DHT22;75315;49.006;9.060;2024-01-25T02:55:08;9.20;1.00
648;DHT22;75315;49.006;9.060;2024-01-25T02:57:33;9.20;1.00
648;DHT22;75315;49.006;9.060;2024-01-25T02:59:59;9.20;1.00
648;DHT22;75315;49.006;9.060;2024-01-25T03:02:25;9.20;1.00
648;DHT22;75315;49.006;9.060;2024-01-25T03:04:50;9.10;1.00
648;DHT22;75315;49.006;9.060;2024-01-25T03:07:16;9.20;1.00
648;DHT22;75315;49.006;9.060;2024-01-25T03:09:42;9.10;1.00
648;DHT22;75315;49.006;9.060;2024-01-25T03:12:07;9.10;1.00
648;DHT22;75315;49.006;9.060;2024-01-25T03:14:33;9.20;1.00
648;DHT22;75315;49.006;9.060;2024-01-25T03:16:58;9.00;1.00
648;DHT22;75315;49.006;9.060;2024-01-25T03:19:25;9.10;1.00
648;DHT22;75315;49.006;9.060;2024-01-25T03:21:54;9.00;1.00
648;DHT22;75315;49.006;9.060;2024-01-25T03:24:23;9.10;1.00
648;DHT22;75315;49.006;9.060;2024-01-25T03:26:49;9.10;1.00
648;DHT22;75315;49.006;9.060;2024-01-25T03:29:15;9.00;1.00
648;DHT22;75315;49.006;9.060;2024-01-25T03:31:41;9.00;1.00
648;DHT22;75315;49.006;9.060;2024-01-25T03:34:06;9.00;1.00
648;DHT22;75315;49.006;9.060;2024-01-25T03:36:32;9.00;1.00
648;DHT22;75315;49.006;9.060;2024-01-25T03:38:58;9.00;1.00
648;DHT22;75315;49.006;9.060;2024-01-25T03:41:24;9.00;1.00
648;DHT22;75315;49.006;9.060;2024-01-25T03:43:50;9.00;1.00
648;DHT22;75315;49.006;9.060;2024-01-25T03:46:17;9.00;1.00
648;DHT22;75315;49.006;9.060;2024-01-25T03:48:42;9.00;1.00
648;DHT22;75315;49.006;9.060;2024-01-25T03:51:08;9.00;1.00
648;DHT22;75315;49.006;9.060;2024-01-25T03:53:34;9.00;1.00
648;DHT22;75315;49.006;9.060;2024-01-25T03:56:00;8.90;1.00
648;DHT22;75315;49.006;9.060;2024-01-25T03:58:25;9.00;1.00
648;DHT22;75315;49.006;9.060;2024-01-25T04:00:51;9.00;1.00
648;DHT22;75315;49.006;9.060;2024-01-25T04:03:16;9.00;1.00
648;DHT22;75315;49.006;9.060;2024-01-25T04:05:42;9.00;1.00
648;DHT22;75315;49.006;9.060;2024-01-25T04:08:07;9.00;1.00
648;DHT22;75315;49.006;9.060;2024-01-25T04:10:33;9.00;1.00
648;DHT22;75315;49.006;9.060;2024-01-25T04:12:59;8.90;1.00
648;DHT22;75315;49.006;9.060;2024-01-25T04:15:30;8.90;1.00
648;DHT22;75315;49.006;9.060;2024-01-25T04:17:55;8.90;1.00
648;DHT22;75315;49.006;9.060;2024-01-25T04:20:24;8.90;1.00
648;DHT22;75315;49.006;9.060;2024-01-25T04:22:49;8.90;1.00
648;DHT22;75315;49.006;9.060;2024-01-25T04:25:15;8.80;1.00
648;DHT22;75315;49.006;9.060;2024-01-25T04:27:41;8.90;1.00
648;DHT22;75315;49.006;9.060;2024-01-25T04:30:07;8.90;1.00
648;DHT22;75315;49.006;9.060;2024-01-25T04:32:33;8.80;1.00
648;DHT22;75315;49.006;9.060;2024-01-25T04:34:59;8.90;1.00
648;DHT22;75315;49.006;9.060;2024-01-25T04:37:24;8.90;1.00
648;DHT22;75315;49.006;9.060;2024-01-25T04:39:50;8.80;1.00
648;DHT22;75315;49.006;9.060;2024-01-25T04:42:15;8.80;1.00
648;DHT22;75315;49.006;9.060;2024-01-25T04:44:41;8.80;1.00
648;DHT22;75315;49.006;9.060;2024-01-25T04:47:07;8.70;1.00
648;DHT22;75315;49.006;9.060;2024-01-25T04:49:33;8.70;1.00
648;DHT22;75315;49.006;9.060;2024-01-25T04:51:58;8.70;1.00
648;DHT22;75315;49.006;9.060;2024-01-25T04:54:24;8.70;1.00
648;DHT22;75315;49.006;9.060;2024-01-25T04:56:49;8.70;1.00
648;DHT22;75315;49.006;9.060;2024-01-25T04:59:15;8.70;1.00
648;DHT22;75315;49.006;9.060;2024-01-25T05:01:41;8.60;1.00
648;DHT22;75315;49.006;9.060;2024-01-25T05:04:06;8.50;1.00
648;DHT22;75315;49.006;9.060;2024-01-25T05:06:32;8.60;1.00
648;DHT22;75315;49.006;9.060;2024-01-25T05:08:57;8.50;1.00
648;DHT22;75315;49.006;9.060;2024-01-25T05:11:23;8.50;1.00
648;DHT22;75315;49.006;9.060;2024-01-25T05:13:48;8.30;1.00
648;DHT22;75315;49.006;9.060;2024-01-25T05:16:14;8.30;1.00
648;DHT22;75315;49.006;9.060;2024-01-25T05:18:40;8.30;1.00
648;DHT22;75315;49.006;9.060;2024-01-25T05:21:06;8.30;1.00
648;DHT22;75315;49.006;9.060;2024-01-25T05:23:31;8.30;1.00
648;DHT22;75315;49.006;9.060;2024-01-25T05:25:57;8.30;1.00
648;DHT22;75315;49.006;9.060;2024-01-25T05:28:23;8.10;1.00
648;DHT22;75315;49.006;9.060;2024-01-25T05:30:49;8.00;1.00
648;DHT22;75315;49.006;9.060;2024-01-25T05:33:15;8.10;1.00
648;DHT22;75315;49.006;9.060;2024-01-25T05:35:41;8.10;1.00
648;DHT22;75315;49.006;9.060;2024-01-25T05:38:06;8.00;1.00
648;DHT22;75315;49.006;9.060;2024-01-25T05:40:32;8.00;1.00
648;DHT22;75315;49.006;9.060;2024-01-25T05:42:58;8.00;1.00
648;DHT22;75315;49.006;9.060;2024-01-25T05:45:24;8.00;1.00
648;DHT22;75315;49.006;9.060;2024-01-25T05:47:50;7.90;1.00
648;DHT22;75315;49.006;9.060;2024-01-25T05:50:15;7.80;1.00
648;DHT22;75315;49.006;9.060;2024-01-25T05:52:41;7.90;1.00
648;DHT22;75315;49.006;9.060;2024-01-25T05:55:07;7.90;1.00
648;DHT22;75315;49.006;9.060;2024-01-25T05:57:35;7.80;1.00
648;DHT22;75315;49.006;9.060;2024-01-25T06:00:01;7.80;1.00
648;DHT22;75315;49.006;9.060;2024-01-25T06:02:26;7.80;1.00
648;DHT22;75315;49.006;9.060;2024-01-25T06:04:52;7.80;1.00
648;DHT22;75315;49.006;9.060;2024-01-25T06:07:18;7.80;1.00
648;DHT22;75315;49.006;9.060;2024-01-25T06:09:43;7.70;1.00
648;DHT22;75315;49.006;9.060;2024-01-25T06:12:09;7.80;1.00
648;DHT22;75315;49.006;9.060;2024-01-25T06:14:34;7.70;1.00
648;DHT22;75315;49.006;9.060;2024-01-25T06:17:00;7.80;1.00
648;DHT22;75315;49.006;9.060;2024-01-25T06:19:25;7.60;1.00
648;DHT22;75315;49.006;9.060;2024-01-25T06:21:51;7.80;1.00
648;DHT22;75315;49.006;9.060;2024-01-25T06:24:16;7.60;1.00
648;DHT22;75315;49.006;9.060;2024-01-25T06:26:42;7.50;1.00
648;DHT22;75315;49.006;9.060;2024-01-25T06:29:08;7.50;1.00
648;DHT22;75315;49.006;9.060;2024-01-25T06:31:42;7.60;1.00
648;DHT22;75315;49.006;9.060;2024-01-25T06:34:09;7.50;1.00
648;DHT22;75315;49.006;9.060;2024-01-25T06:36:35;7.50;1.00
648;DHT22;75315;49.006;9.060;2024-01-25T06:39:00;7.30;1.00
648;DHT22;75315;49.006;9.060;2024-01-25T06:41:26;7.10;1.00
648;DHT22;75315;49.006;9.060;2024-01-25T06:43:51;7.00;1.00
648;DHT22;75315;49.006;9.060;2024-01-25T06:46:17;7.10;1.00
648;DHT22;75315;49.006;9.060;2024-01-25T06:48:43;7.00;1.00
648;DHT22;75315;49.006;9.060;2024-01-25T06:51:09;7.20;1.00
648;DHT22;75315;49.006;9.060;2024-01-25T06:53:34;7.30;1.00
648;DHT22;75315;49.006;9.060;2024-01-25T06:56:00;7.20;1.00
648;DHT22;75315;49.006;9.060;2024-01-25T06:58:25;7.10;1.00
648;DHT22;75315;49.006;9.060;2024-01-25T07:00:51;7.30;1.00
648;DHT22;75315;49.006;9.060;2024-01-25T07:03:18;7.00;1.00
648;DHT22;75315;49.006;9.060;2024-01-25T07:05:44;7.00;1.00
648;DHT22;75315;49.006;9.060;2024-01-25T07:08:09;7.00;1.00
648;DHT22;75315;49.006;9.060;2024-01-25T07:10:39;7.00;1.00
648;DHT22;75315;49.006;9.060;2024-01-25T07:13:05;7.00;1.00
648;DHT22;75315;49.006;9.060;2024-01-25T07:15:30;6.90;1.00
648;DHT22;75315;49.006;9.060;2024-01-25T07:17:56;6.90;1.00
648;DHT22;75315;49.006;9.060;2024-01-25T07:20:21;6.90;1.00
648;DHT22;75315;49.006;9.060;2024-01-25T07:22:47;7.10;1.00
648;DHT22;75315;49.006;9.060;2024-01-25T07:25:13;7.00;1.00
648;DHT22;75315;49.006;9.060;2024-01-25T07:27:38;7.00;1.00
648;DHT22;75315;49.006;9.060;2024-01-25T07:30:04;7.00;1.00
648;DHT22;75315;49.006;9.060;2024-01-25T07:32:30;7.10;1.00
648;DHT22;75315;49.006;9.060;2024-01-25T07:34:57;7.10;1.00
648;DHT22;75315;49.006;9.060;2024-01-25T07:37:23;7.20;1.00
648;DHT22;75315;49.006;9.060;2024-01-25T07:39:49;7.20;1.00
648;DHT22;75315;49.006;9.060;2024-01-25T07:42:14;7.10;1.00
648;DHT22;75315;49.006;9.060;2024-01-25T07:44:40;7.30;1.00
648;DHT22;75315;49.006;9.060;2024-01-25T07:47:06;7.30;1.00
648;DHT22;75315;49.006;9.060;2024-01-25T07:49:31;7.30;1.00
648;DHT22;75315;49.006;9.060;2024-01-25T07:51:57;7.30;1.00
648;DHT22;75315;49.006;9.060;2024-01-25T07:54:22;7.30;1.00
648;DHT22;75315;49.006;9.060;2024-01-25T07:56:48;7.50;1.00
648;DHT22;75315;49.006;9.060;2024-01-25T07:59:14;7.50;1.00
648;DHT22;75315;49.006;9.060;2024-01-25T08:01:40;7.80;1.00
648;DHT22;75315;49.006;9.060;2024-01-25T08:04:06;7.80;1.00
648;DHT22;75315;49.006;9.060;2024-01-25T08:06:32;8.00;1.00
648;DHT22;75315;49.006;9.060;2024-01-25T08:08:57;8.00;1.00
648;DHT22;75315;49.006;9.060;2024-01-25T08:11:24;7.90;1.00
648;DHT22;75315;49.006;9.060;2024-01-25T08:13:49;7.90;1.00
648;DHT22;75315;49.006;9.060;2024-01-25T08:16:15;7.90;1.00
648;DHT22;75315;49.006;9.060;2024-01-25T08:18:47;7.90;1.00
648;DHT22;75315;49.006;9.060;2024-01-25T08:21:13;8.10;1.00
648;DHT22;75315;49.006;9.060;2024-01-25T08:23:39;8.20;1.00
648;DHT22;75315;49.006;9.060;2024-01-25T08:26:05;8.30;1.00
648;DHT22;75315;49.006;9.060;2024-01-25T08:28:38;8.40;1.00
648;DHT22;75315;49.006;9.060;2024-01-25T08:31:04;8.60;1.00
648;DHT22;75315;49.006;9.060;2024-01-25T08:33:30;8.80;1.00
648;DHT22;75315;49.006;9.060;2024-01-25T08:35:56;8.60;1.00
648;DHT22;75315;49.006;9.060;2024-01-25T08:38:21;8.70;1.00
648;DHT22;75315;49.006;9.060;2024-01-25T08:40:47;8.60;1.00
648;DHT22;75315;49.006;9.060;2024-01-25T08:43:13;8.60;1.00
648;DHT22;75315;49.006;9.060;2024-01-25T08:45:38;8.60;1.00
648;DHT22;75315;49.006;9.060;2024-01-25T08:48:04;8.80;1.00
648;DHT22;75315;49.006;9.060;2024-01-25T08:50:30;8.90;1.00
648;DHT22;75315;49.006;9.060;2024-01-25T08:52:56;8.80;1.00
648;DHT22;75315;49.006;9.060;2024-01-25T08:55:21;8.80;1.00
648;DHT22;75315;49.006;9.060;2024-01-25T08:57:48;9.00;1.00
648;DHT22;75315;49.006;9.060;2024-01-25T09:00:14;9.10;1.00
648;DHT22;75315;49.006;9.060;2024-01-25T09:02:40;8.90;1.00
648;DHT22;75315;49.006;9.060;2024-01-25T09:05:07;9.00;1.00
648;DHT22;75315;49.006;9.060;2024-01-25T09:07:33;8.90;1.00
648;DHT22;75315;49.006;9.060;2024-01-25T09:09:58;9.10;1.00
648;DHT22;75315;49.006;9.060;2024-01-25T09:12:24;9.00;1.00
648;DHT22;75315;49.006;9.060;2024-01-25T09:14:49;9.00;1.00
648;DHT22;75315;49.006;9.060;2024-01-25T09:17:15;8.90;1.00
648;DHT22;75315;49.006;9.060;2024-01-25T09:19:49;8.90;1.00
648;DHT22;75315;49.006;9.060;2024-01-25T09:22:15;8.80;1.00
648;DHT22;75315;49.006;9.060;2024-01-25T09:24:43;8.80;1.00
648;DHT22;75315;49.006;9.060;2024-01-25T09:27:09;8.90;1.00
648;DHT22;75315;49.006;9.060;2024-01-25T09:29:34;9.00;1.00
648;DHT22;75315;49.006;9.060;2024-01-25T09:32:00;9.00;1.00
648;DHT22;75315;49.006;9.060;2024-01-25T09:34:25;8.80;1.00
648;DHT22;75315;49.006;9.060;2024-01-25T09:36:51;8.80;1.00
648;DHT22;75315;49.006;9.060;2024-01-25T09:39:17;8.90;1.00
648;DHT22;75315;49.006;9.060;2024-01-25T09:41:43;8.90;1.00
648;DHT22;75315;49.006;9.060;2024-01-25T09:44:09;9.00;1.00
648;DHT22;75315;49.006;9.060;2024-01-25T09:46:35;9.00;1.00
648;DHT22;75315;49.006;9.060;2024-01-25T09:49:01;8.90;1.00
648;DHT22;75315;49.006;9.060;2024-01-25T09:51:30;9.00;1.00
648;DHT22;75315;49.006;9.060;2024-01-25T09:54:00;9.00;1.00
648;DHT22;75315;49.006;9.060;2024-01-25T09:56:28;9.00;1.00
648;DHT22;75315;49.006;9.060;2024-01-25T09:58:56;9.10;1.00
648;DHT22;75315;49.006;9.060;2024-01-25T10:01:22;8.80;1.00
648;DHT22;75315;49.006;9.060;2024-01-25T10:03:48;9.10;1.00
648;DHT22;75315;49.006;9.060;2024-01-25T10:06:15;8.90;1.00
648;DHT22;75315;49.006;9.060;2024-01-25T10:08:41;9.00;1.00
648;DHT22;75315;49.006;9.060;2024-01-25T10:11:07;9.00;1.00
648;DHT22;75315;49.006;9.060;2024-01-25T10:13:45;9.20;1.00
648;DHT22;75315;49.006;9.060;2024-01-25T10:16:15;9.10;1.00
648;DHT22;75315;49.006;9.060;2024-01-25T10:18:43;9.30;1.00
648;DHT22;75315;49.006;9.060;2024-01-25T10:21:12;9.20;1.00
648;DHT22;75315;49.006;9.060;2024-01-25T10:23:39;9.30;1.00
648;DHT22;75315;49.006;9.060;2024-01-25T10:26:04;9.30;1.00
648;DHT22;75315;49.006;9.060;2024-01-25T10:28:30;9.20;1.00
648;DHT22;75315;49.006;9.060;2024-01-25T10:31:01;9.20;1.00
648;DHT22;75315;49.006;9.060;2024-01-25T10:33:27;9.30;1.00
648;DHT22;75315;49.006;9.060;2024-01-25T10:35:56;9.30;1.00
648;DHT22;75315;49.006;9.060;2024-01-25T10:38:33;9.60;1.00
648;DHT22;75315;49.006;9.060;2024-01-25T10:41:01;9.50;1.00
648;DHT22;75315;49.006;9.060;2024-01-25T10:43:27;9.50;1.00
648;DHT22;75315;49.006;9.060;2024-01-25T10:45:53;9.50;1.00
648;DHT22;75315;49.006;9.060;2024-01-25T10:48:23;9.50;1.00
648;DHT22;75315;49.006;9.060;2024-01-25T10:50:49;9.50;1.00
648;DHT22;75315;49.006;9.060;2024-01-25T10:53:16;9.60;1.00
648;DHT22;75315;49.006;9.060;2024-01-25T10:55:42;9.80;1.00
648;DHT22;75315;49.006;9.060;2024-01-25T10:58:08;9.80;1.00
648;DHT22;75315;49.006;9.060;2024-01-25T11:00:35;10.10;1.00
648;DHT22;75315;49.006;9.060;2024-01-25T11:03:01;10.20;1.00
648;DHT22;75315;49.006;9.060;2024-01-25T11:05:27;10.10;1.00
648;DHT22;75315;49.006;9.060;2024-01-25T11:07:53;10.30;1.00
648;DHT22;75315;49.006;9.060;2024-01-25T11:10:21;10.40;1.00
648;DHT22;75315;49.006;9.060;2024-01-25T11:12:59;10.50;1.00
648;DHT22;75315;49.006;9.060;2024-01-25T11:15:34;10.60;1.00
648;DHT22;75315;49.006;9.060;2024-01-25T11:18:01;10.70;1.00
648;DHT22;75315;49.006;9.060;2024-01-25T11:20:28;10.80;1.00
648;DHT22;75315;49.006;9.060;2024-01-25T11:23:15;10.80;1.00
648;DHT22;75315;49.006;9.060;2024-01-25T11:25:44;11.10;1.00
648;DHT22;75315;49.006;9.060;2024-01-25T11:28:11;10.90;1.00
648;DHT22;75315;49.006;9.060;2024-01-25T11:30:39;11.00;1.00
648;DHT22;75315;49.006;9.060;2024-01-25T11:33:06;10.90;1.00
648;DHT22;75315;49.006;9.060;2024-01-25T11:35:32;10.80;1.00
648;DHT22;75315;49.006;9.060;2024-01-25T11:37:58;11.20;1.00
648;DHT22;75315;49.006;9.060;2024-01-25T11:40:25;10.70;1.00
648;DHT22;75315;49.006;9.060;2024-01-25T11:42:51;11.00;1.00
648;DHT22;75315;49.006;9.060;2024-01-25T11:45:17;11.00;1.00
648;DHT22;75315;49.006;9.060;2024-01-25T11:47:44;11.00;1.00
648;DHT22;75315;49.006;9.060;2024-01-25T11:50:11;11.00;1.00
648;DHT22;75315;49.006;9.060;2024-01-25T11:52:55;10.80;1.00
648;DHT22;75315;49.006;9.060;2024-01-25T11:55:24;11.20;1.00
648;DHT22;75315;49.006;9.060;2024-01-25T11:57:50;11.40;1.00
648;DHT22;75315;49.006;9.060;2024-01-25T12:00:16;11.20;1.00
648;DHT22;75315;49.006;9.060;2024-01-25T12:02:43;11.30;1.00
648;DHT22;75315;49.006;9.060;2024-01-25T12:05:11;11.00;1.00
648;DHT22;75315;49.006;9.060;2024-01-25T12:07:40;11.20;1.00
648;DHT22;75315;49.006;9.060;2024-01-25T12:10:07;11.20;1.00
648;DHT22;75315;49.006;9.060;2024-01-25T12:12:37;11.20;1.00
648;DHT22;75315;49.006;9.060;2024-01-25T12:15:16;11.30;1.00
648;DHT22;75315;49.006;9.060;2024-01-25T12:17:47;11.30;1.00
648;DHT22;75315;49.006;9.060;2024-01-25T12:20:16;11.20;1.00
648;DHT22;75315;49.006;9.060;2024-01-25T12:22:48;11.40;1.00
648;DHT22;75315;49.006;9.060;2024-01-25T12:25:14;11.40;1.00
648;DHT22;75315;49.006;9.060;2024-01-25T12:27:40;11.30;1.00
648;DHT22;75315;49.006;9.060;2024-01-25T12:30:14;11.40;1.00
648;DHT22;75315;49.006;9.060;2024-01-25T12:32:43;11.50;1.00
648;DHT22;75315;49.006;9.060;2024-01-25T12:35:10;11.40;1.00
648;DHT22;75315;49.006;9.060;2024-01-25T12:37:36;11.40;1.00
648;DHT22;75315;49.006;9.060;2024-01-25T12:40:12;11.70;1.00
648;DHT22;75315;49.006;9.060;2024-01-25T12:42:38;11.70;1.00
648;DHT22;75315;49.006;9.060;2024-01-25T12:45:04;11.50;1.00
648;DHT22;75315;49.006;9.060;2024-01-25T12:47:30;11.70;1.00
648;DHT22;75315;49.006;9.060;2024-01-25T12:49:56;11.80;1.00
648;DHT22;75315;49.006;9.060;2024-01-25T12:52:21;12.00;1.00
648;DHT22;75315;49.006;9.060;2024-01-25T12:54:53;11.90;1.00
648;DHT22;75315;49.006;9.060;2024-01-25T12:57:21;12.10;1.00
648;DHT22;75315;49.006;9.060;2024-01-25T12:59:47;12.10;1.00
648;DHT22;75315;49.006;9.060;2024-01-25T13:02:19;11.80;1.00
648;DHT22;75315;49.006;9.060;2024-01-25T13:04:44;11.90;1.00
648;DHT22;75315;49.006;9.060;2024-01-25T13:07:16;12.00;1.00
648;DHT22;75315;49.006;9.060;2024-01-25T13:09:41;12.30;1.00
648;DHT22;75315;49.006;9.060;2024-01-25T13:12:07;12.10;1.00
648;DHT22;75315;49.006;9.060;2024-01-25T13:14:33;12.20;1.00
648;DHT22;75315;49.006;9.060;2024-01-25T13:16:59;12.30;1.00
648;DHT22;75315;49.006;9.060;2024-01-25T13:19:24;12.40;1.00
648;DHT22;75315;49.006;9.060;2024-01-25T13:21:50;12.30;1.00
648;DHT22;75315;49.006;9.060;2024-01-25T13:24:19;12.20;1.00
648;DHT22;75315;49.006;9.060;2024-01-25T13:30:17;11.80;1.00
648;DHT22;75315;49.006;9.060;2024-01-25T13:32:51;11.70;1.00
648;DHT22;75315;49.006;9.060;2024-01-25T13:35:22;11.70;1.00
648;DHT22;75315;49.006;9.060;2024-01-25T13:37:59;11.70;1.00
648;DHT22;75315;49.006;9.060;2024-01-25T13:40:36;11.70;1.00
648;DHT22;75315;49.006;9.060;2024-01-25T13:43:13;11.60;1.00
648;DHT22;75315;49.006;9.060;2024-01-25T13:45:41;11.70;1.00
648;DHT22;75315;49.006;9.060;2024-01-25T13:48:07;11.60;1.00
648;DHT22;75315;49.006;9.060;2024-01-25T13:50:36;11.60;1.00
648;DHT22;75315;49.006;9.060;2024-01-25T13:53:04;11.40;1.00
648;DHT22;75315;49.006;9.060;2024-01-25T13:55:30;11.40;1.00
648;DHT22;75315;49.006;9.060;2024-01-25T13:58:16;11.40;1.00
648;DHT22;75315;49.006;9.060;2024-01-25T14:00:42;11.40;1.00
648;DHT22;75315;49.006;9.060;2024-01-25T14:03:08;11.50;1.00
648;DHT22;75315;49.006;9.060;2024-01-25T14:05:37;11.50;1.00
648;DHT22;75315;49.006;9.060;2024-01-25T14:08:03;11.30;1.00
648;DHT22;75315;49.006;9.060;2024-01-25T14:10:29;11.40;1.00
648;DHT22;75315;49.006;9.060;2024-01-25T14:12:55;11.50;1.00
648;DHT22;75315;49.006;9.060;2024-01-25T14:15:21;11.50;1.00
648;DHT22;75315;49.006;9.060;2024-01-25T14:17:49;11.50;1.00
648;DHT22;75315;49.006;9.060;2024-01-25T14:20:15;11.50;1.00
648;DHT22;75315;49.006;9.060;2024-01-25T14:22:44;11.30;1.00
648;DHT22;75315;49.006;9.060;2024-01-25T14:25:12;11.20;1.00
648;DHT22;75315;49.006;9.060;2024-01-25T14:27:38;11.20;1.00
648;DHT22;75315;49.006;9.060;2024-01-25T14:30:10;11.10;1.00
648;DHT22;75315;49.006;9.060;2024-01-25T14:32:36;11.10;1.00
648;DHT22;75315;49.006;9.060;2024-01-25T14:35:02;11.00;1.00
648;DHT22;75315;49.006;9.060;2024-01-25T14:37:28;11.00;1.00
648;DHT22;75315;49.006;9.060;2024-01-25T14:39:55;11.20;1.00
648;DHT22;75315;49.006;9.060;2024-01-25T14:42:21;10.90;1.00
648;DHT22;75315;49.006;9.060;2024-01-25T14:44:47;10.90;1.00
648;DHT22;75315;49.006;9.060;2024-01-25T14:47:13;10.70;1.00
648;DHT22;75315;49.006;9.060;2024-01-25T14:49:42;10.80;1.00
648;DHT22;75315;49.006;9.060;2024-01-25T14:52:08;10.70;1.00
648;DHT22;75315;49.006;9.060;2024-01-25T14:54:33;10.90;1.00
648;DHT22;75315;49.006;9.060;2024-01-25T14:56:59;10.80;1.00
648;DHT22;75315;49.006;9.060;2024-01-25T14:59:25;10.60;1.00
648;DHT22;75315;49.006;9.060;2024-01-25T15:01:50;10.50;1.00
648;DHT22;75315;49.006;9.060;2024-01-25T15:04:16;10.50;1.00
648;DHT22;75315;49.006;9.060;2024-01-25T15:06:42;10.50;1.00
648;DHT22;75315;49.006;9.060;2024-01-25T15:09:08;10.40;1.00
648;DHT22;75315;49.006;9.060;2024-01-25T15:11:34;10.40;1.00
648;DHT22;75315;49.006;9.060;2024-01-25T15:14:00;10.30;1.00
648;DHT22;75315;49.006;9.060;2024-01-25T15:16:26;10.40;1.00
648;DHT22;75315;49.006;9.060;2024-01-25T15:18:51;10.20;1.00
648;DHT22;75315;49.006;9.060;2024-01-25T15:21:17;10.20;1.00
648;DHT22;75315;49.006;9.060;2024-01-25T15:23:43;10.20;1.00
648;DHT22;75315;49.006;9.060;2024-01-25T15:26:09;10.00;1.00
648;DHT22;75315;49.006;9.060;2024-01-25T15:28:37;9.90;1.00
648;DHT22;75315;49.006;9.060;2024-01-25T15:31:03;10.10;1.00
648;DHT22;75315;49.006;9.060;2024-01-25T15:33:31;10.10;1.00
648;DHT22;75315;49.006;9.060;2024-01-25T15:35:57;10.00;1.00
648;DHT22;75315;49.006;9.060;2024-01-25T15:38:26;9.90;1.00
648;DHT22;75315;49.006;9.060;2024-01-25T15:40:51;9.90;1.00
648;DHT22;75315;49.006;9.060;2024-01-25T15:43:20;10.00;1.00
648;DHT22;75315;49.006;9.060;2024-01-25T15:45:45;9.80;1.00
648;DHT22;75315;49.006;9.060;2024-01-25T15:48:11;9.80;1.00
648;DHT22;75315;49.006;9.060;2024-01-25T15:50:37;9.70;1.00
648;DHT22;75315;49.006;9.060;2024-01-25T15:53:03;9.60;1.00
648;DHT22;75315;49.006;9.060;2024-01-25T15:55:29;9.60;1.00
648;DHT22;75315;49.006;9.060;2024-01-25T15:57:55;9.70;1.00
648;DHT22;75315;49.006;9.060;2024-01-25T16:00:21;9.60;1.00
648;DHT22;75315;49.006;9.060;2024-01-25T16:02:47;9.40;1.00
648;DHT22;75315;49.006;9.060;2024-01-25T16:05:12;9.40;1.00
648;DHT22;75315;49.006;9.060;2024-01-25T16:07:39;9.50;1.00
648;DHT22;75315;49.006;9.060;2024-01-25T16:10:06;9.50;1.00
648;DHT22;75315;49.006;9.060;2024-01-25T16:12:31;9.50;1.00
648;DHT22;75315;49.006;9.060;2024-01-25T16:14:57;9.50;1.00
648;DHT22;75315;49.006;9.060;2024-01-25T16:17:24;9.60;1.00
648;DHT22;75315;49.006;9.060;2024-01-25T16:19:50;9.50;1.00
648;DHT22;75315;49.006;9.060;2024-01-25T16:22:15;9.50;1.00
648;DHT22;75315;49.006;9.060;2024-01-25T16:24:41;9.50;1.00
648;DHT22;75315;49.006;9.060;2024-01-25T16:27:09;9.50;1.00
648;DHT22;75315;49.006;9.060;2024-01-25T16:29:35;9.60;1.00